Decoded Metar for KBFM (MOBILE in AL, USA) (IATA:BFM) | Meteo·Mobile Aviation Weather
aviador You're here:

KBFM Decoded Metar

MOBILE in AL, USA
Report Time2018-11-21 06:53:00
UTC Time2018-11-21 07:53:49
Flight Rules vfr VFR
Wind330° at 05 kt
W.Decomp.*RWY 32: 4.9 kt HW 1.0 kt RCW
RWY 36: 4.4 kt HW 2.4 kt LCW
W.Rank330° ranks 6
Current wind is below 330° avg. (7.6)
Visibility9999 m
Phenomena:N/A
Clouds:N/A
Expected CloudBase > 800 ft AGL from Temp-Dew spread
CeilingNone
Temp07°C (ISA -8)
Dew Point05°C (87% RH)
AAT4.1°C
QNH1026 hPa
Density Alt-1,204 ft
Elevation66 ft
Report Wrong Elevation
Raw Report
METAR KBFM 210653Z AUTO 33005KT 10SM CLR 07/05 A3029 RMK AO2 SLP257
T00720050=

Extra information for KBFM:More info

Metar Taf Metar & Taf Last 4 Metars F.Rules Stats Wind Profile Meteogram Temp Stats Airport Information Weather charts Add Link Nearby VenuesMetar ALERT Operation Metar Decoded Social comments

AIRNAV info for KBFM